METAR Data
IDs: Format: Raw Decoded Include TAF

Data at: 2146 UTC 18 Sep 2018

KEBG 182135Z AUTO 12012G17KT 10SM SCT044 SCT050 SCT060 33/23 A2987 RMK AO2 LTG DSNT S AND W T03330229
KEBG 182115Z AUTO 10012G17KT 10SM SCT044 SCT050 SCT075 35/22 A2987 RMK AO2 LTG DSNT SW T03450224
KEBG 182055Z AUTO 10009G14KT 10SM SCT044 BKN050 BKN075 35/23 A2987 RMK AO2 T03510225
KEBG 182035Z AUTO 11006KT 060V120 10SM BKN044 BKN055 BKN075 34/23 A2988 RMK AO2 T03430229
KEBG 182015Z AUTO 13009KT 10SM SCT046 BKN055 35/22 A2989 RMK AO2 T03480224
KEBG 181955Z AUTO 14006KT 10SM SCT044 SCT050 34/22 A2990 RMK AO2 LTG DSNT W T03370222
KEBG 181935Z AUTO 11007KT 10SM SCT042 SCT055 35/22 A2991 RMK AO2 T03460222
KEBG 181915Z AUTO 11007KT 10SM SCT042 SCT070 34/22 A2991 RMK AO2 T03390219
KEBG 181855Z AUTO 13007KT 10SM BKN040 BKN070 34/22 A2993 RMK AO2 LTG DSNT W T03410222
KEBG 181835Z AUTO 14005KT 10SM BKN038 BKN048 34/23 A2994 RMK AO2 T03390228
KEBG 181815Z AUTO 14007KT 10SM SCT038 SCT045 33/23 A2995 RMK AO2 T03290225
KEBG 181755Z AUTO 14009KT 10SM SCT034 SCT045 34/23 A2996 RMK AO2 T03380226 10338 20255
KEBG 181735Z AUTO 15009KT 10SM SCT034 33/23 A2997 RMK AO2 T03340229
KEBG 181715Z AUTO 14008KT 10SM SCT032 33/23 A2998 RMK AO2 T03270233
KEBG 181655Z AUTO 13009KT 10SM SCT030 SCT037 32/23 A2998 RMK AO2 T03240230
KEBG 181635Z AUTO 13008KT 10SM SCT028 32/23 A2999 RMK AO2 T03220233
KEBG 181615Z AUTO 14009KT 10SM SCT023 BKN030 32/24 A2999 RMK AO2 T03170241
KEBG 181555Z AUTO 14008KT 10SM SCT021 SCT028 31/24 A2999 RMK AO2 T03110241
KEBG 181535Z AUTO 13008KT 10SM SCT019 31/24 A2999 RMK AO2 T03090244
KEBG 181515Z AUTO 13007KT 10SM SCT015 30/25 A2999 RMK AO2 T03020248
KEBG 181455Z AUTO 14008KT 10SM SCT013 SCT017 30/25 A2999 RMK AO2 T02950254
KEBG 181435Z AUTO 14007KT 10SM SCT011 29/26 A2999 RMK AO2 T02880260
KEBG 181415Z AUTO 13007KT 10SM CLR 28/26 A2999 RMK AO2 T02780259
KEBG 181355Z AUTO 12006KT 10SM CLR 28/26 A2998 RMK AO2 T02750259
KEBG 181335Z AUTO 10004KT 7SM CLR 27/26 A2998 RMK AO2 T02700255
KEBG 181315Z AUTO 11004KT 7SM CLR 27/25 A2998 RMK AO2 T02650252
KEBG 181255Z AUTO 11003KT 5SM BR CLR 26/25 A2998 RMK AO2 T02600246
KEBG 181235Z AUTO 00000KT 5SM BR CLR 26/24 A2998 RMK AO2 T02550242
KEBG 181215Z AUTO 11004KT 7SM CLR 26/24 A2997 RMK AO2 T02560243
KEBG 181155Z AUTO 10004KT 4SM BR CLR 26/24 A2997 RMK AO2 T02560243 10264 20253
KEBG 181135Z AUTO 10004KT 5SM BR CLR 26/24 A2996 RMK AO2 T02550240
KEBG 181115Z AUTO 10004KT 4SM BR CLR 25/24 A2996 RMK AO2 T02530240
KEBG 181055Z AUTO 00000KT 3SM BR CLR 25/24 A2996 RMK AO2 T02540240
KEBG 181035Z AUTO 00000KT 1 1/2SM BR VV007 26/24 A2996 RMK AO2 T02560242
KEBG 181015Z AUTO 00000KT 1 3/4SM BR VV007 26/24 A2996 RMK AO2 T02560241
KEBG 180955Z AUTO 00000KT 1 1/2SM BR VV007 26/24 A2995 RMK AO2 T02570242
KEBG 180935Z AUTO 00000KT 2 1/2SM BR CLR 26/24 A2995 RMK AO2 T02570242
KEBG 180915Z AUTO 00000KT 3SM BR SCT016 26/24 A2995 RMK AO2 T02590243
KEBG 180855Z AUTO 00000KT 5SM BR BKN014 BKN020 26/25 A2995 RMK AO2 T02600245
KEBG 180835Z AUTO 00000KT 7SM BKN014 BKN021 BKN034 26/25 A2995 RMK AO2 T02610245
KEBG 180815Z AUTO 00000KT 7SM SCT017 SCT023 26/25 A2996 RMK AO2 T02610245
KEBG 180755Z AUTO 00000KT 5SM BR SCT017 26/24 A2996 RMK AO2 LTG DSNT NW T02600243
KEBG 180735Z AUTO 00000KT 7SM CLR 26/25 A2996 RMK AO2 T02620245
KEBG 180715Z AUTO 14003KT 10SM CLR 26/25 A2996 RMK AO2 T02630245
KEBG 180655Z AUTO 12004KT 10SM CLR 26/25 A2996 RMK AO2 T02630245
KEBG 180635Z AUTO 11004KT 10SM CLR 26/25 A2997 RMK AO2 T02630245
KEBG 180615Z AUTO 11004KT 10SM CLR 26/24 A2996 RMK AO2 T02620243
KEBG 180555Z AUTO 10005KT 10SM CLR 26/24 A2997 RMK AO2 T02620242 10310 20262 403540252
KEBG 180535Z AUTO 11003KT 10SM CLR 26/24 A2997 RMK AO2 T02630241
KEBG 180515Z AUTO 00000KT 10SM CLR 26/24 A2997 RMK AO2 T02630240
KEBG 180455Z AUTO 11004KT 10SM CLR 27/24 A2997 RMK AO2 T02650240
KEBG 180435Z AUTO 12003KT 10SM CLR 27/24 A2997 RMK AO2 T02660240
KEBG 180415Z AUTO 11004KT 10SM CLR 27/24 A2997 RMK AO2 LTG DSNT NW T02680240
KEBG 180355Z AUTO 11003KT 10SM SCT022 27/24 A2997 RMK AO2 T02710240
KEBG 180335Z AUTO 00000KT 10SM CLR 27/24 A2997 RMK AO2 LTG DSNT SW T02720240
KEBG 180315Z AUTO 12004KT 10SM CLR 28/24 A2996 RMK AO2 T02760240
KEBG 180255Z AUTO 13005KT 10SM CLR 28/24 A2995 RMK AO2 T02780240
KEBG 180235Z AUTO 13005KT 10SM CLR 28/24 A2994 RMK AO2 T02820242
KEBG 180215Z AUTO 12006KT 10SM CLR 29/24 A2993 RMK AO2 LTG DSNT W T02850243
KEBG 180155Z AUTO 12006KT 10SM CLR 29/25 A2993 RMK AO2 LTG DSNT W T02860245
KEBG 180135Z AUTO 11006KT 10SM CLR 29/25 A2991 RMK AO2 T02870246
KEBG 180115Z AUTO 10005KT 10SM CLR 29/25 A2990 RMK AO2 T02900246
KEBG 180055Z AUTO 11004KT 10SM CLR 29/25 A2990 RMK AO2 T02940245
KEBG 180035Z AUTO 11006KT 10SM CLR 30/25 A2989 RMK AO2 LTG DSNT SW T03010245
KEBG 180015Z AUTO 11008KT 10SM SCT039 BKN050 31/24 A2989 RMK AO2 T03070243
KEBG 172355Z AUTO 12010KT 10SM SCT039 BKN047 BKN050 31/24 A2988 RMK AO2 T03100243 10354 20310
KEBG 172330Z AUTO 11008KT 10SM SCT046 SCT055 32/24 A2988 RMK AO2 T03160235
KEBG 172315Z AUTO 11015KT 10SM SCT048 33/23 A2988 RMK AO2 LTG DSNT W T03310227
KEBG 172255Z AUTO 14010KT 10SM CLR 34/22 A2988 RMK AO2 LTG DSNT W T03360215
KEBG 172235Z AUTO 13012G16KT 10SM CLR 34/22 A2987 RMK AO2 LTG DSNT W T03360222
KEBG 172215Z AUTO 13011G16KT 10SM CLR 34/22 A2987 RMK AO2 LTG DSNT N T03380218
KEBG 172155Z AUTO 14012KT 10SM SCT050 34/21 A2986 RMK AO2 T03370211
KEBG 172135Z AUTO 14009G16KT 10SM SCT050 34/21 A2987 RMK AO2 LTG DSNT W T03410210
KEBG 172115Z AUTO 15012KT 10SM CLR 35/21 A2987 RMK AO2 LTG DSNT SW T03490208
KEBG 172055Z AUTO 16009KT 10SM CLR 35/21 A2988 RMK AO2 LTG DSNT SW AND W T03510208
KEBG 172035Z AUTO 15009KT 10SM SCT050 34/21 A2988 RMK AO2 LTG DSNT SW T03420209
KEBG 172015Z AUTO 14013G17KT 10SM SCT048 SCT065 35/21 A2989 RMK AO2 T03530212
KEBG 171955Z AUTO 14012G16KT 10SM BKN048 BKN065 35/21 A2990 RMK AO2 LTG DSNT NW T03520214
KEBG 171935Z AUTO 16011G14KT 10SM SCT043 BKN050 BKN065 34/21 A2991 RMK AO2 T03390213
KEBG 171915Z AUTO 12010G14KT 10SM SCT040 BKN047 BKN070 34/23 A2991 RMK AO2 T03380226
KEBG 171855Z AUTO 14011G15KT 10SM SCT041 BKN048 BKN070 34/23 A2993 RMK AO2 T03430229
KEBG 171835Z AUTO 14008KT 10SM SCT037 SCT048 BKN050 33/23 A2994 RMK AO2 T03300226
KEBG 171815Z AUTO 15012G16KT 10SM SCT030 SCT037 SCT055 34/23 A2994 RMK AO2 T03370231
KEBG 171755Z AUTO 14010KT 10SM SCT030 SCT041 BKN055 33/24 A2995 RMK AO2 T03340235 10334 20262
KEBG 171735Z AUTO 15010KT 10SM BKN028 BKN041 BKN050 33/24 A2995 RMK AO2 T03300242
KEBG 171715Z AUTO 14010KT 10SM BKN028 32/24 A2996 RMK AO2 T03210241
KEBG 171655Z AUTO 14010KT 10SM BKN026 BKN032 33/24 A2997 RMK AO2 T03250244
KEBG 171635Z AUTO 14010G15KT 10SM BKN024 BKN030 32/24 A2997 RMK AO2 T03210242
KEBG 171615Z AUTO 14010KT 10SM SCT021 BKN026 BKN034 31/25 A2997 RMK AO2 T03140245
KEBG 171555Z AUTO 12009KT 10SM SCT016 SCT024 31/25 A2997 RMK AO2 T03090247
KEBG 171535Z AUTO 13008KT 10SM SCT014 BKN120 31/26 A2997 RMK AO2 T03060256
KEBG 171515Z AUTO 11010KT 10SM SCT012 SCT120 30/25 A2996 RMK AO2 T02970254
KEBG 171455Z AUTO 12009KT 10SM BKN012 BKN017 30/26 A2996 RMK AO2 T02960256
KEBG 171435Z AUTO 12009KT 10SM SCT012 29/26 A2995 RMK AO2 T02940257
KEBG 171415Z AUTO 12007KT 10SM CLR 28/26 A2995 RMK AO2 T02830259
KEBG 171355Z AUTO 11006KT 10SM CLR 28/26 A2994 RMK AO2 T02750256
KEBG 171335Z AUTO 11005KT 7SM CLR 27/25 A2994 RMK AO2 T02700253
KEBG 171315Z AUTO 11006KT 10SM SCT120 27/25 A2994 RMK AO2 T02670251
KEBG 171255Z AUTO 10005KT 7SM BKN120 27/25 A2993 RMK AO2 T02650250
KEBG 171235Z AUTO 11004KT 10SM BKN120 26/25 A2993 RMK AO2 T02630248
KEBG 171215Z AUTO 09004KT 10SM BKN110 26/25 A2992 RMK AO2 T02620247
KEBG 171155Z AUTO 10004KT 10SM OVC110 26/25 A2992 RMK AO2 70002 T02620247 10262 20252
KEBG 171135Z AUTO 10004KT 7SM BKN110 26/25 A2992 RMK AO2 T02600245
KEBG 171115Z AUTO 09003KT 7SM BKN110 26/24 A2991 RMK AO2 LTG DSNT SW T02580242
KEBG 171055Z AUTO 09003KT 10SM BKN110 26/24 A2990 RMK AO2 T02580242
KEBG 171035Z AUTO 00000KT 10SM SCT110 26/24 A2990 RMK AO2 T02580241
KEBG 171015Z AUTO 00000KT 10SM SCT110 26/24 A2990 RMK AO2 T02570241
KEBG 170955Z AUTO 00000KT 10SM CLR 26/24 A2990 RMK AO2 T02570240